createdAt,value
2022-09-23T00:01:02.475Z,101844.59
2022-09-23T00:03:31.255Z,101848.97
2022-09-23T00:06:07.193Z,101846.44
2022-09-23T00:08:34.190Z,101853.53
2022-09-23T00:11:14.942Z,101850.94
2022-09-23T00:13:43.509Z,101846.75
2022-09-23T00:16:13.274Z,101843.34
2022-09-23T00:18:40.729Z,101842.47
2022-09-23T00:21:10.861Z,101839.97
2022-09-23T00:23:38.690Z,101840.16
2022-09-23T00:26:08.128Z,101830.75
2022-09-23T00:28:35.958Z,101836.88
2022-09-23T00:31:11.515Z,101828.16
2022-09-23T00:33:38.883Z,101827.56
2022-09-23T00:36:08.752Z,101821.34
2022-09-23T00:38:36.503Z,101820.72
2022-09-23T00:41:03.967Z,101817.97
2022-09-23T00:43:49.106Z,101817.91
2022-09-23T00:46:19.733Z,101813.78
2022-09-23T00:48:48.907Z,101820.88
2022-09-23T00:51:20.079Z,101820.03
2022-09-23T00:53:50.535Z,101816.78
2022-09-23T00:56:19.663Z,101797.69
2022-09-23T00:58:47.376Z,101800.97
2022-09-23T01:01:14.432Z,101802.81
2022-09-23T01:03:44.807Z,101797.47
2022-09-23T01:06:12.140Z,101798.31
2022-09-23T01:08:40.218Z,101803.78
2022-09-23T01:11:14.694Z,101804.63
2022-09-23T01:13:56.583Z,101802.16
2022-09-23T01:16:41.354Z,101811.88
2022-09-23T01:19:26.147Z,101799.88
2022-09-23T01:22:29.080Z,101806.72
2022-09-23T01:25:20.900Z,101800.78
2022-09-23T01:28:23.746Z,101798.19
2022-09-23T01:30:53.485Z,101803.69
2022-09-23T01:33:29.632Z,101791.50
2022-09-23T01:36:23.734Z,101792.69
2022-09-23T01:38:59.625Z,101782.50
2022-09-23T01:41:47.227Z,101783.16
2022-09-23T01:44:20.169Z,101786.69
2022-09-23T01:47:22.891Z,101778.19
2022-09-23T01:49:57.874Z,101776.50
2022-09-23T01:52:47.347Z,101769.56
2022-09-23T01:55:21.176Z,101777.63
2022-09-23T01:58:02.569Z,101784.47
2022-09-23T02:00:35.428Z,101783.69
2022-09-23T02:03:15.208Z,101783.53
2022-09-23T02:06:09.403Z,101776.69
2022-09-23T02:08:41.994Z,101785.50
2022-09-23T02:11:11.908Z,101775.88
2022-09-23T02:13:56.224Z,101765.38
2022-09-23T02:16:25.638Z,101771.88
2022-09-23T02:19:07.196Z,101769.22
2022-09-23T02:21:39.147Z,101764.78
2022-09-23T02:24:16.627Z,101755.28
2022-09-23T02:26:49.296Z,101751.91
2022-09-23T02:29:21.550Z,101749.44
2022-09-23T02:32:15.102Z,101739.06
2022-09-23T02:35:41.230Z,101742.69
2022-09-23T02:38:25.994Z,101745.44
2022-09-23T02:41:12.001Z,101730.69
2022-09-23T02:44:03.390Z,101739.63
2022-09-23T02:46:31.453Z,101729.31
2022-09-23T02:49:11.348Z,101726.59
2022-09-23T02:51:40.128Z,101725.75
2022-09-23T02:54:13.336Z,101718.03
2022-09-23T02:56:41.101Z,101719.06
2022-09-23T02:59:14.262Z,101718.47
2022-09-23T03:02:15.044Z,101720.28
2022-09-23T03:05:18.271Z,101717.69
2022-09-23T03:08:05.247Z,101715.13
2022-09-23T03:11:04.199Z,101718.72
2022-09-23T03:13:42.818Z,101713.50
2022-09-23T03:16:22.593Z,101718.72
2022-09-23T03:19:18.446Z,101713.63
2022-09-23T03:22:18.596Z,101712.06
2022-09-23T03:24:53.716Z,101707.09
2022-09-23T03:27:26.226Z,101700.16
2022-09-23T03:29:55.878Z,101704.53
2022-09-23T03:32:29.611Z,101705.25
2022-09-23T03:35:05.625Z,101699.13
2022-09-23T03:37:52.345Z,101697.41
2022-09-23T03:40:43.674Z,101706.91
2022-09-23T03:43:14.172Z,101703.56
2022-09-23T03:45:43.295Z,101698.28
2022-09-23T03:48:11.023Z,101694.84
2022-09-23T03:50:39.544Z,101691.44
2022-09-23T03:53:18.137Z,101687.22
2022-09-23T03:55:48.377Z,101685.44
2022-09-23T03:58:22.780Z,101685.56
2022-09-23T04:00:55.025Z,101688.16
2022-09-23T04:03:24.416Z,101678.00
2022-09-23T04:05:57.410Z,101674.34
2022-09-23T04:08:25.254Z,101676.16
2022-09-23T04:10:55.042Z,101682.28
2022-09-23T04:13:22.263Z,101677.03
2022-09-23T04:15:51.273Z,101677.88
2022-09-23T04:18:21.350Z,101670.28
2022-09-23T04:20:49.501Z,101676.44
2022-09-23T04:23:18.039Z,101670.28
2022-09-23T04:25:50.183Z,101671.03
2022-09-23T04:28:17.500Z,101680.53
2022-09-23T04:30:50.158Z,101679.69
2022-09-23T04:33:18.019Z,101671.09
2022-09-23T04:35:48.676Z,101672.91
2022-09-23T04:38:15.202Z,101668.53
2022-09-23T04:40:41.882Z,101665.22
2022-09-23T04:43:13.446Z,101659.13
2022-09-23T04:45:40.219Z,101659.94
2022-09-23T04:48:10.089Z,101664.25
2022-09-23T04:50:37.676Z,101667.69
2022-09-23T04:53:05.852Z,101667.69
2022-09-23T04:55:33.182Z,101671.13
2022-09-23T04:57:59.672Z,101667.69
2022-09-23T05:00:29.123Z,101664.44
2022-09-23T05:02:58.244Z,101665.31
2022-09-23T05:05:24.904Z,101668.78
2022-09-23T05:07:54.937Z,101661.97
2022-09-23T05:10:22.270Z,101655.88
2022-09-23T05:12:52.447Z,101661.03
2022-09-23T05:15:21.544Z,101661.03
2022-09-23T05:17:48.471Z,101653.31
2022-09-23T05:20:15.168Z,101659.31
2022-09-23T05:22:44.175Z,101651.66
2022-09-23T05:25:10.731Z,101656.91
2022-09-23T05:27:39.051Z,101658.53
2022-09-23T05:30:10.155Z,101662.94
2022-09-23T05:32:36.944Z,101661.97
2022-09-23T05:35:09.056Z,101661.03
2022-09-23T05:37:37.647Z,101667.13
2022-09-23T05:40:04.601Z,101666.34
2022-09-23T05:42:31.271Z,101664.47
2022-09-23T05:44:58.555Z,101666.13
2022-09-23T05:47:26.285Z,101671.28
2022-09-23T05:50:00.282Z,101663.41
2022-09-23T05:52:27.579Z,101666.00
2022-09-23T05:54:56.278Z,101661.63
2022-09-23T05:57:22.970Z,101664.28
2022-09-23T05:59:51.347Z,101666.84
2022-09-23T06:02:18.201Z,101673.75
2022-09-23T06:04:45.484Z,101668.63
2022-09-23T06:07:12.396Z,101668.47
2022-09-23T06:09:38.969Z,101676.28
2022-09-23T06:12:09.538Z,101668.47
2022-09-23T06:14:37.075Z,101666.66
2022-09-23T06:17:03.664Z,101660.53
2022-09-23T06:19:30.166Z,101669.28
2022-09-23T06:21:56.567Z,101660.53
2022-09-23T06:24:28.582Z,101654.44
2022-09-23T06:26:57.381Z,101659.59
2022-09-23T06:29:24.350Z,101647.28
2022-09-23T06:31:51.112Z,101649.81
2022-09-23T06:34:20.290Z,101652.31
2022-09-23T06:36:47.611Z,101646.13
2022-09-23T06:39:15.829Z,101647.72
2022-09-23T06:41:43.441Z,101654.53
2022-09-23T06:44:11.034Z,101653.56
2022-09-23T06:46:38.114Z,101650.91
2022-09-23T06:49:05.221Z,101655.94
2022-09-23T06:51:31.942Z,101656.72
2022-09-23T06:53:58.440Z,101652.22
2022-09-23T06:56:24.930Z,101652.94
2022-09-23T06:58:53.555Z,101658.94
2022-09-23T07:01:20.968Z,101662.31
2022-09-23T07:03:48.387Z,101651.66
2022-09-23T07:06:15.859Z,101656.56
2022-09-23T07:08:51.295Z,101661.50
2022-09-23T07:11:22.369Z,101661.50
2022-09-23T07:13:49.050Z,101659.59
2022-09-23T07:16:15.750Z,101661.06
2022-09-23T07:18:42.660Z,101654.91
2022-09-23T07:21:14.956Z,101660.06
2022-09-23T07:23:42.613Z,101665.16
2022-09-23T07:26:09.423Z,101658.03
2022-09-23T07:28:37.293Z,101661.28
2022-09-23T07:31:10.451Z,101657.56
2022-09-23T07:33:39.901Z,101652.28
2022-09-23T07:36:08.503Z,101650.47
2022-09-23T07:38:35.668Z,101665.13
2022-09-23T07:41:05.787Z,101663.28
2022-09-23T07:43:33.206Z,101662.16
2022-09-23T07:46:10.553Z,101659.16
2022-09-23T07:48:40.044Z,101660.56
2022-09-23T07:51:12.526Z,101663.75
2022-09-23T07:53:39.367Z,101667.81
2022-09-23T07:56:06.829Z,101662.38
2022-09-23T07:58:40.406Z,101672.38
2022-09-23T08:01:11.970Z,101677.94
2022-09-23T08:03:42.394Z,101660.16
2022-09-23T08:06:13.159Z,101664.09
2022-09-23T08:08:44.611Z,101662.09
2022-09-23T08:11:14.320Z,101656.47
2022-09-23T08:13:45.046Z,101654.34
2022-09-23T08:16:11.857Z,101652.22
2022-09-23T08:18:43.054Z,101662.38
2022-09-23T08:21:19.641Z,101667.41
2022-09-23T08:23:46.891Z,101668.94
2022-09-23T08:26:19.992Z,101663.41
2022-09-23T08:28:47.945Z,101663.03
2022-09-23T08:31:14.942Z,101667.28
2022-09-23T08:33:41.490Z,101660.22
2022-09-23T08:36:08.220Z,101654.75
2022-09-23T08:38:34.887Z,101656.28
2022-09-23T08:41:39.831Z,101653.25
2022-09-23T08:44:19.300Z,101648.44
2022-09-23T08:47:15.721Z,101661.56
2022-09-23T08:49:53.429Z,101665.47
2022-09-23T08:52:33.406Z,101660.00
2022-09-23T08:55:03.259Z,101658.81
2022-09-23T08:58:24.956Z,101659.91
2022-09-23T09:01:04.281Z,101660.31
2022-09-23T09:03:40.253Z,101664.63
2022-09-23T09:06:12.933Z,101661.00
2022-09-23T09:08:40.172Z,101653.00
2022-09-23T09:11:07.945Z,101654.59
2022-09-23T09:13:43.300Z,101653.41
2022-09-23T09:16:59.629Z,101653.03
2022-09-23T09:19:41.290Z,101655.16
2022-09-23T09:22:17.226Z,101656.41
2022-09-23T09:24:45.982Z,101651.09
2022-09-23T09:27:13.995Z,101648.97
2022-09-23T09:29:49.774Z,101652.09
2022-09-23T09:32:26.924Z,101646.50
2022-09-23T09:35:06.110Z,101643.47
2022-09-23T09:37:47.072Z,101641.34
2022-09-23T09:40:17.446Z,101637.88
2022-09-23T09:42:49.093Z,101635.94
2022-09-23T09:45:47.155Z,101635.56
2022-09-23T09:48:20.878Z,101638.03
2022-09-23T09:50:52.192Z,101634.56
2022-09-23T09:53:32.068Z,101631.69
2022-09-23T09:56:16.106Z,101636.72
2022-09-23T09:59:01.807Z,101631.13
2022-09-23T10:01:31.266Z,101628.44
2022-09-23T10:04:01.009Z,101625.34
2022-09-23T10:06:30.386Z,101622.28
2022-09-23T10:09:32.092Z,101624.09
2022-09-23T10:12:18.986Z,101628.56
2022-09-23T10:14:50.465Z,101621.91
2022-09-23T10:17:39.348Z,101617.03
2022-09-23T10:20:14.024Z,101610.66
2022-09-23T10:22:42.480Z,101614.78
2022-09-23T10:25:17.608Z,101601.09
2022-09-23T10:27:45.506Z,101599.22
2022-09-23T10:30:15.003Z,101597.91
2022-09-23T10:32:44.919Z,101597.78
2022-09-23T10:35:17.680Z,101596.56
2022-09-23T10:37:52.573Z,101599.00
2022-09-23T10:40:45.030Z,101603.50
2022-09-23T10:44:19.786Z,101599.19
2022-09-23T10:47:14.869Z,101603.69
2022-09-23T10:50:00.259Z,101600.31
2022-09-23T10:52:57.172Z,101608.03
2022-09-23T10:55:32.425Z,101609.78
2022-09-23T10:58:19.316Z,101610.53
2022-09-23T11:00:55.112Z,101605.41
2022-09-23T11:03:31.844Z,101606.13
2022-09-23T11:06:35.675Z,101605.00
2022-09-23T11:09:29.127Z,101601.81
2022-09-23T11:12:02.002Z,101610.75
2022-09-23T11:14:31.887Z,101601.47
2022-09-23T11:17:08.296Z,101602.22
2022-09-23T11:19:41.086Z,101606.63
2022-09-23T11:22:21.170Z,101598.53
2022-09-23T11:24:58.475Z,101606.41
2022-09-23T11:28:05.109Z,101601.81
2022-09-23T11:31:10.195Z,101603.50
2022-09-23T11:33:55.074Z,101598.16
2022-09-23T11:36:32.956Z,101597.97
2022-09-23T11:39:05.413Z,101597.78
2022-09-23T11:41:37.237Z,101589.59
2022-09-23T11:44:14.988Z,101594.47
2022-09-23T11:47:03.833Z,101592.28
2022-09-23T11:50:09.729Z,101582.78
2022-09-23T11:52:41.536Z,101586.44
2022-09-23T11:55:28.202Z,101574.47
2022-09-23T11:58:25.310Z,101575.38
2022-09-23T12:01:01.439Z,101582.13
2022-09-23T12:03:47.188Z,101581.59
2022-09-23T12:06:39.954Z,101573.00
2022-09-23T12:09:57.297Z,101572.72
2022-09-23T12:12:49.609Z,101562.38
2022-09-23T12:16:11.683Z,101560.47
2022-09-23T12:19:11.204Z,101559.66
2022-09-23T12:22:06.244Z,101563.09
2022-09-23T12:24:54.035Z,101559.09
2022-09-23T12:27:37.051Z,101556.47
2022-09-23T12:30:13.192Z,101560.88
2022-09-23T12:32:42.236Z,101547.84
2022-09-23T12:35:35.849Z,101552.06
2022-09-23T12:38:03.405Z,101542.56
2022-09-23T12:40:40.775Z,101536.38
2022-09-23T12:43:17.149Z,101544.59
2022-09-23T12:45:43.829Z,101541.13
2022-09-23T12:48:16.684Z,101541.63
2022-09-23T12:50:55.890Z,101539.31
2022-09-23T12:53:58.092Z,101528.66
2022-09-23T12:56:36.665Z,101541.53
2022-09-23T12:59:21.907Z,101529.63
2022-09-23T13:01:48.957Z,101537.34
2022-09-23T13:05:03.043Z,101531.53
2022-09-23T13:07:34.213Z,101535.31
2022-09-23T13:10:29.288Z,101525.53
2022-09-23T13:12:57.999Z,101528.47
2022-09-23T13:15:28.693Z,101532.09
2022-09-23T13:18:20.784Z,101526.81
2022-09-23T13:20:48.863Z,101526.06
2022-09-23T13:23:33.760Z,101519.75
2022-09-23T13:26:09.183Z,101526.81
2022-09-23T13:28:46.433Z,101516.28
2022-09-23T13:31:15.943Z,101524.28
2022-09-23T13:33:59.737Z,101521.56
2022-09-23T13:36:27.086Z,101519.13
2022-09-23T13:38:54.057Z,101514.16
2022-09-23T13:41:24.418Z,101510.91
2022-09-23T13:44:00.238Z,101512.59
2022-09-23T13:46:30.207Z,101506.47
2022-09-23T13:48:57.325Z,101508.19
2022-09-23T13:51:27.679Z,101510.59
2022-09-23T13:53:56.315Z,101503.44
2022-09-23T13:56:25.014Z,101503.31
2022-09-23T13:58:52.247Z,101503.75
2022-09-23T14:01:23.637Z,101507.00
2022-09-23T14:03:51.332Z,101504.38
2022-09-23T14:06:17.979Z,101506.69
2022-09-23T14:08:50.278Z,101500.16
2022-09-23T14:11:19.720Z,101496.66
2022-09-23T14:13:48.740Z,101494.47
2022-09-23T14:16:16.934Z,101488.03
2022-09-23T14:18:46.482Z,101481.59
2022-09-23T14:21:35.057Z,101487.41
2022-09-23T14:24:25.038Z,101486.44
2022-09-23T14:26:58.608Z,101476.88
2022-09-23T14:29:34.267Z,101475.09
2022-09-23T14:32:13.442Z,101472.75
2022-09-23T14:34:40.861Z,101467.63
2022-09-23T14:37:41.105Z,101467.63
2022-09-23T14:40:15.360Z,101463.19
2022-09-23T14:42:46.130Z,101458.06
2022-09-23T14:45:21.578Z,101457.09
2022-09-23T14:47:52.188Z,101453.72
2022-09-23T14:50:37.069Z,101458.06
2022-09-23T14:53:04.909Z,101460.88
2022-09-23T14:55:31.466Z,101462.78
2022-09-23T14:58:11.056Z,101459.19
2022-09-23T15:00:37.553Z,101446.97
2022-09-23T15:03:14.615Z,101445.19
2022-09-23T15:05:46.243Z,101445.38
2022-09-23T15:08:21.247Z,101443.00
2022-09-23T15:10:48.859Z,101450.34
2022-09-23T15:13:22.774Z,101441.72
2022-09-23T15:15:53.273Z,101448.88
2022-09-23T15:18:44.610Z,101443.84
2022-09-23T15:21:17.581Z,101442.16
2022-09-23T15:23:45.221Z,101444.19
2022-09-23T15:26:13.806Z,101438.91
2022-09-23T15:28:40.822Z,101432.91
2022-09-23T15:31:09.171Z,101432.09
2022-09-23T15:33:36.134Z,101436.47
2022-09-23T15:36:03.293Z,101442.72
2022-09-23T15:38:29.859Z,101438.38
2022-09-23T15:40:56.437Z,101437.66
2022-09-23T15:43:25.011Z,101440.28
2022-09-23T15:45:54.675Z,101440.41
2022-09-23T15:48:25.960Z,101441.34
2022-09-23T15:50:54.314Z,101431.97
2022-09-23T15:53:23.862Z,101438.06
2022-09-23T15:55:51.126Z,101439.03
2022-09-23T15:58:22.202Z,101432.72
2022-09-23T16:00:56.088Z,101434.59
2022-09-23T16:03:28.930Z,101437.47
2022-09-23T16:05:59.987Z,101432.28
2022-09-23T16:08:27.485Z,101436.00
2022-09-23T16:10:54.914Z,101429.34
2022-09-23T16:13:21.687Z,101437.16
2022-09-23T16:15:48.145Z,101432.81
2022-09-23T16:18:14.698Z,101433.97
2022-09-23T16:20:44.534Z,101439.22
2022-09-23T16:23:35.576Z,101440.41
2022-09-23T16:26:17.605Z,101430.84
2022-09-23T16:28:45.651Z,101433.69
2022-09-23T16:31:16.064Z,101433.78
2022-09-23T16:33:44.022Z,101432.94
2022-09-23T16:36:22.579Z,101439.88
2022-09-23T16:38:49.455Z,101437.34
2022-09-23T16:41:15.948Z,101433.97
2022-09-23T16:43:42.375Z,101436.94
2022-09-23T16:46:12.137Z,101442.41
2022-09-23T16:48:40.573Z,101437.34
2022-09-23T16:51:13.441Z,101436.50
2022-09-23T16:53:40.009Z,101441.97
2022-09-23T16:56:10.938Z,101441.44
2022-09-23T16:58:39.169Z,101441.56
2022-09-23T17:01:26.021Z,101443.31
2022-09-23T17:03:53.297Z,101441.19
2022-09-23T17:06:20.280Z,101440.78
2022-09-23T17:08:51.109Z,101441.91
2022-09-23T17:11:17.633Z,101437.69
2022-09-23T17:13:44.455Z,101441.28
2022-09-23T17:16:20.994Z,101441.50
2022-09-23T17:18:47.522Z,101438.22
2022-09-23T17:21:13.977Z,101436.41
2022-09-23T17:23:40.429Z,101436.06
2022-09-23T17:26:09.645Z,101434.41
2022-09-23T17:28:36.371Z,101444.19
2022-09-23T17:31:06.567Z,101437.13
2022-09-23T17:33:41.193Z,101443.22
2022-09-23T17:36:09.449Z,101441.63
2022-09-23T17:38:36.553Z,101439.31
2022-09-23T17:41:04.293Z,101433.31
2022-09-23T17:43:31.693Z,101433.31
2022-09-23T17:46:06.252Z,101426.38
2022-09-23T17:48:35.267Z,101428.16
2022-09-23T17:51:11.913Z,101423.88
2022-09-23T17:53:40.272Z,101419.53
2022-09-23T17:56:27.052Z,101413.88
2022-09-23T17:58:54.176Z,101411.88
2022-09-23T18:01:23.942Z,101423.13
2022-09-23T18:03:58.994Z,101428.16
2022-09-23T18:06:28.608Z,101422.25
2022-09-23T18:08:56.064Z,101417.22
2022-09-23T18:11:28.235Z,101421.53
2022-09-23T18:14:05.097Z,101420.91
2022-09-23T18:16:35.618Z,101421.72
2022-09-23T18:19:04.090Z,101413.00
2022-09-23T18:21:33.042Z,101422.03
2022-09-23T18:24:28.044Z,101418.00
2022-09-23T18:26:47.942Z,101423.25
2022-09-23T18:29:15.917Z,101423.88
2022-09-23T18:31:44.226Z,101422.38
2022-09-23T18:34:13.028Z,101426.78
2022-09-23T18:36:40.308Z,101424.06
2022-09-23T18:39:06.998Z,101422.38
2022-09-23T18:41:33.902Z,101418.72
2022-09-23T18:44:00.784Z,101415.91
2022-09-23T18:46:31.725Z,101415.03
2022-09-23T18:49:17.814Z,101416.72
2022-09-23T18:51:56.068Z,101412.31
2022-09-23T18:54:24.491Z,101417.78
2022-09-23T18:56:52.648Z,101420.41
2022-09-23T18:59:20.812Z,101423.13
2022-09-23T19:01:49.675Z,101417.22
2022-09-23T19:04:18.660Z,101424.34
2022-09-23T19:06:45.985Z,101431.78
2022-09-23T19:09:14.243Z,101423.16
2022-09-23T19:11:40.797Z,101430.72
2022-09-23T19:14:11.147Z,101422.97
2022-09-23T19:16:38.973Z,101422.31
2022-09-23T19:19:05.799Z,101420.63
2022-09-23T19:21:33.364Z,101412.66
2022-09-23T19:24:04.691Z,101432.72
2022-09-23T19:26:39.261Z,101427.38
2022-09-23T19:29:08.257Z,101427.38
2022-09-23T19:31:39.925Z,101422.97
2022-09-23T19:34:15.301Z,101423.91
2022-09-23T19:36:44.358Z,101419.78
2022-09-23T19:39:27.694Z,101419.78
2022-09-23T19:41:58.736Z,101420.91
2022-09-23T19:44:28.284Z,101417.53
2022-09-23T19:46:56.742Z,101410.63
2022-09-23T19:49:24.532Z,101410.72
2022-09-23T19:51:51.683Z,101407.34
2022-09-23T19:54:20.483Z,101410.28
2022-09-23T19:56:48.619Z,101408.38
2022-09-23T19:59:18.806Z,101402.94
2022-09-23T20:01:45.835Z,101409.13
2022-09-23T20:04:12.460Z,101404.19
2022-09-23T20:06:39.354Z,101404.34
2022-09-23T20:09:05.854Z,101406.06
2022-09-23T20:11:33.351Z,101407.91
2022-09-23T20:14:02.218Z,101404.63
2022-09-23T20:16:32.352Z,101405.47
2022-09-23T20:19:00.152Z,101404.53
2022-09-23T20:21:28.064Z,101402.94
2022-09-23T20:23:54.477Z,101398.53
2022-09-23T20:26:39.386Z,101396.75
2022-09-23T20:29:06.493Z,101398.63
2022-09-23T20:31:34.397Z,101401.25
2022-09-23T20:34:05.249Z,101394.22
2022-09-23T20:36:32.679Z,101397.03
2022-09-23T20:39:00.737Z,101401.34
2022-09-23T20:41:29.725Z,101394.34
2022-09-23T20:44:00.541Z,101390.00
2022-09-23T20:46:28.465Z,101388.34
2022-09-23T20:48:56.615Z,101385.06
2022-09-23T20:51:24.539Z,101378.22
2022-09-23T20:53:52.706Z,101379.91
2022-09-23T20:56:22.719Z,101381.69
2022-09-23T20:58:50.620Z,101380.19
2022-09-23T21:01:17.619Z,101379.28
2022-09-23T21:03:46.441Z,101375.69
2022-09-23T21:06:15.440Z,101370.53
2022-09-23T21:08:43.061Z,101366.25
2022-09-23T21:11:11.914Z,101364.66
2022-09-23T21:13:38.346Z,101367.38
2022-09-23T21:16:16.138Z,101359.72
2022-09-23T21:18:43.591Z,101362.41
2022-09-23T21:21:12.042Z,101357.09
2022-09-23T21:23:39.476Z,101360.72
2022-09-23T21:26:09.218Z,101356.34
2022-09-23T21:28:37.629Z,101361.75
2022-09-23T21:31:10.798Z,101359.13
2022-09-23T21:33:37.823Z,101364.38
2022-09-23T21:36:06.667Z,101362.78
2022-09-23T21:38:37.164Z,101360.19
2022-09-23T21:41:06.462Z,101360.19
2022-09-23T21:43:35.290Z,101362.13
2022-09-23T21:46:03.959Z,101354.34
2022-09-23T21:48:32.643Z,101357.94
2022-09-23T21:51:01.996Z,101359.88
2022-09-23T21:53:39.596Z,101367.97
2022-09-23T21:56:12.387Z,101353.91
2022-09-23T21:58:42.231Z,101359.34
2022-09-23T22:01:17.867Z,101367.00
2022-09-23T22:03:49.619Z,101364.31
2022-09-23T22:06:21.638Z,101365.25
2022-09-23T22:08:54.501Z,101360.84
2022-09-23T22:11:41.992Z,101361.75
2022-09-23T22:14:11.610Z,101359.34
2022-09-23T22:16:39.143Z,101356.63
2022-09-23T22:19:07.006Z,101352.59
2022-09-23T22:21:36.498Z,101359.50
2022-09-23T22:24:04.554Z,101353.81
2022-09-23T22:26:36.624Z,101354.69
2022-09-23T22:29:22.339Z,101353.72
2022-09-23T22:32:07.520Z,101350.44
2022-09-23T22:34:50.917Z,101344.19
2022-09-23T22:37:28.411Z,101347.56
2022-09-23T22:39:55.100Z,101341.66
2022-09-23T22:42:22.226Z,101338.94
2022-09-23T22:44:49.041Z,101342.50
2022-09-23T22:47:17.565Z,101342.50
2022-09-23T22:49:43.985Z,101341.56
2022-09-23T22:52:11.207Z,101351.31
2022-09-23T22:54:37.701Z,101346.59
2022-09-23T22:57:05.277Z,101333.72
2022-09-23T22:59:31.866Z,101335.38
2022-09-23T23:02:06.547Z,101343.06
2022-09-23T23:04:33.471Z,101334.47
2022-09-23T23:07:00.687Z,101332.75
2022-09-23T23:09:27.060Z,101337.91
2022-09-23T23:11:53.562Z,101328.47
2022-09-23T23:14:20.406Z,101329.59
2022-09-23T23:16:47.481Z,101326.88
2022-09-23T23:19:17.380Z,101327.50
2022-09-23T23:21:45.714Z,101322.28
2022-09-23T23:24:20.927Z,101322.94
2022-09-23T23:26:47.956Z,101326.59
2022-09-23T23:29:16.109Z,101323.03
2022-09-23T23:31:43.403Z,101325.75
2022-09-23T23:34:15.725Z,101322.19
2022-09-23T23:36:43.516Z,101325.63
2022-09-23T23:39:10.715Z,101314.53
2022-09-23T23:41:37.924Z,101316.28
2022-09-23T23:44:05.403Z,101319.28
2022-09-23T23:46:32.667Z,101312.28
2022-09-23T23:49:00.149Z,101314.78
2022-09-23T23:51:27.350Z,101320.97
2022-09-23T23:53:54.676Z,101314.03
2022-09-23T23:56:23.584Z,101313.19
2022-09-23T23:58:57.952Z,101310.03
